createdAt,value
2023-04-30T00:02:27.158Z,5.87
2023-04-30T00:05:27.712Z,5.95
2023-04-30T00:07:54.182Z,5.95
2023-04-30T00:11:20.201Z,5.90
2023-04-30T00:13:47.576Z,5.77
2023-04-30T00:16:14.015Z,5.73
2023-04-30T00:18:40.514Z,5.72
2023-04-30T00:21:07.235Z,5.65
2023-04-30T00:23:52.127Z,5.57
2023-04-30T00:26:19.288Z,5.51
2023-04-30T00:29:55.413Z,5.45
2023-04-30T00:32:23.700Z,5.42
2023-04-30T00:34:51.277Z,5.42
2023-04-30T00:37:18.846Z,5.38
2023-04-30T00:39:45.301Z,5.32
2023-04-30T00:42:13.617Z,5.28
2023-04-30T00:45:37.900Z,5.22
2023-04-30T00:48:04.841Z,5.19
2023-04-30T00:50:31.880Z,5.15
2023-04-30T00:52:59.865Z,5.10
2023-04-30T00:55:26.921Z,5.11
2023-04-30T00:57:57.211Z,5.02
2023-04-30T01:01:13.484Z,4.94
2023-04-30T01:03:42.452Z,4.86
2023-04-30T01:06:10.147Z,4.86
2023-04-30T01:08:36.751Z,4.83
2023-04-30T01:11:37.178Z,4.80
2023-04-30T01:14:29.544Z,4.75
2023-04-30T01:17:09.963Z,4.72
2023-04-30T01:20:47.119Z,4.66
2023-04-30T01:23:25.494Z,4.58
2023-04-30T01:26:47.902Z,4.58
2023-04-30T01:29:23.854Z,4.55
2023-04-30T01:31:51.262Z,4.52
2023-04-30T01:38:26.130Z,4.45
2023-04-30T01:40:59.372Z,4.44
2023-04-30T01:47:35.631Z,4.40
2023-04-30T01:50:33.177Z,4.46
2023-04-30T01:53:02.066Z,4.51
2023-04-30T01:55:41.518Z,4.55
2023-04-30T01:58:12.353Z,4.59
2023-04-30T02:00:38.782Z,4.56
2023-04-30T02:03:05.429Z,4.52
2023-04-30T02:05:32.157Z,4.49
2023-04-30T02:07:58.757Z,4.49
2023-04-30T02:10:27.142Z,4.45
2023-04-30T02:12:53.876Z,4.45
2023-04-30T02:15:20.735Z,4.50
2023-04-30T02:17:47.211Z,4.51
2023-04-30T02:20:13.795Z,4.50
2023-04-30T02:22:40.342Z,4.49
2023-04-30T02:25:07.095Z,4.45
2023-04-30T02:27:34.014Z,4.45
2023-04-30T02:30:01.019Z,4.43
2023-04-30T02:32:27.823Z,4.37
2023-04-30T02:34:54.266Z,4.35
2023-04-30T02:37:20.789Z,4.34
2023-04-30T02:39:47.896Z,4.31
2023-04-30T02:42:14.615Z,4.32
2023-04-30T02:44:41.194Z,4.31
2023-04-30T02:47:07.550Z,4.30
2023-04-30T02:49:34.214Z,4.28
2023-04-30T02:52:00.944Z,4.20
2023-04-30T02:54:27.409Z,4.13
2023-04-30T02:56:53.841Z,4.04
2023-04-30T02:59:20.250Z,4.00
2023-04-30T03:01:47.373Z,3.95
2023-04-30T03:04:13.792Z,3.89
2023-04-30T03:06:40.278Z,3.83
2023-04-30T03:09:07.090Z,3.84
2023-04-30T03:11:37.334Z,3.86
2023-04-30T03:14:04.945Z,3.86
2023-04-30T03:16:31.413Z,3.89
2023-04-30T03:18:57.997Z,3.88
2023-04-30T03:21:24.462Z,3.94
2023-04-30T03:23:50.837Z,3.94
2023-04-30T03:26:17.386Z,3.95
2023-04-30T03:28:43.787Z,3.90
2023-04-30T03:31:10.216Z,3.89
2023-04-30T03:33:36.637Z,3.86
2023-04-30T03:36:03.192Z,3.80
2023-04-30T03:38:29.578Z,3.74
2023-04-30T03:40:56.315Z,3.73
2023-04-30T03:43:22.731Z,3.69
2023-04-30T03:45:49.482Z,3.66
2023-04-30T03:48:16.018Z,3.66
2023-04-30T03:50:42.574Z,3.66
2023-04-30T03:53:09.007Z,3.61
2023-04-30T03:55:35.919Z,3.55
2023-04-30T03:58:02.552Z,3.54
2023-04-30T04:00:29.064Z,3.53
2023-04-30T04:02:58.347Z,3.52
2023-04-30T04:05:24.989Z,3.51
2023-04-30T04:07:51.456Z,3.50
2023-04-30T04:10:17.910Z,3.48
2023-04-30T04:12:44.328Z,3.48
2023-04-30T04:15:11.036Z,3.47
2023-04-30T04:17:37.458Z,3.52
2023-04-30T04:20:06.133Z,3.61
2023-04-30T04:22:32.560Z,3.75
2023-04-30T04:24:59.060Z,4.08
2023-04-30T04:27:25.474Z,4.52
2023-04-30T04:29:52.123Z,5.03
2023-04-30T04:32:18.786Z,5.59
2023-04-30T04:34:45.836Z,6.19
2023-04-30T04:37:12.290Z,6.54
2023-04-30T04:39:38.706Z,6.95
2023-04-30T04:42:05.288Z,7.20
2023-04-30T04:44:32.313Z,7.43
2023-04-30T04:46:58.752Z,7.64
2023-04-30T04:49:25.199Z,7.42
2023-04-30T04:51:51.643Z,7.33
2023-04-30T04:54:18.217Z,7.40
2023-04-30T04:56:44.617Z,7.11
2023-04-30T04:59:11.053Z,6.91
2023-04-30T05:01:37.552Z,7.00
2023-04-30T05:04:04.176Z,7.15
2023-04-30T05:06:30.841Z,7.36
2023-04-30T05:08:57.505Z,8.02
2023-04-30T05:11:23.918Z,9.09
2023-04-30T05:13:50.399Z,10.00
2023-04-30T05:16:17.253Z,11.66
2023-04-30T05:18:43.751Z,13.66
2023-04-30T05:21:10.594Z,15.12
2023-04-30T05:23:37.045Z,15.35
2023-04-30T05:26:03.812Z,15.18
2023-04-30T05:28:30.563Z,15.03
2023-04-30T05:30:57.048Z,15.00
2023-04-30T05:33:23.666Z,14.87
2023-04-30T05:35:50.051Z,15.30
2023-04-30T05:38:16.439Z,15.14
2023-04-30T05:40:43.206Z,15.09
2023-04-30T05:43:09.960Z,15.04
2023-04-30T05:45:36.452Z,15.08
2023-04-30T05:48:02.960Z,15.21
2023-04-30T05:50:29.515Z,15.37
2023-04-30T05:52:56.075Z,15.71
2023-04-30T05:55:22.535Z,15.68
2023-04-30T05:57:49.032Z,16.28
2023-04-30T06:00:16.118Z,16.67
2023-04-30T06:02:42.522Z,16.68
2023-04-30T06:05:09.156Z,16.43
2023-04-30T06:07:35.643Z,16.17
2023-04-30T06:10:03.305Z,15.70
2023-04-30T06:12:29.893Z,15.72
2023-04-30T06:14:56.302Z,15.79
2023-04-30T06:17:22.770Z,15.69
2023-04-30T06:19:49.192Z,15.36
2023-04-30T06:22:15.641Z,15.71
2023-04-30T06:24:42.089Z,15.48
2023-04-30T06:27:08.617Z,15.02
2023-04-30T06:29:36.226Z,15.03
2023-04-30T06:32:02.646Z,15.01
2023-04-30T06:34:29.285Z,14.93
2023-04-30T06:36:56.468Z,14.88
2023-04-30T06:39:23.075Z,15.03
2023-04-30T06:41:49.476Z,15.39
2023-04-30T06:44:16.496Z,15.71
2023-04-30T06:46:42.898Z,15.36
2023-04-30T06:49:09.372Z,15.36
2023-04-30T06:51:36.165Z,15.84
2023-04-30T06:54:02.625Z,15.94
2023-04-30T06:56:29.063Z,16.25
2023-04-30T06:58:55.495Z,16.22
2023-04-30T07:01:21.961Z,16.19
2023-04-30T07:03:48.545Z,16.25
2023-04-30T07:06:15.537Z,16.13
2023-04-30T07:08:43.845Z,15.67
2023-04-30T07:11:10.313Z,15.54
2023-04-30T07:13:37.338Z,16.34
2023-04-30T07:16:04.551Z,16.35
2023-04-30T07:18:31.391Z,16.29
2023-04-30T07:20:57.766Z,16.08
2023-04-30T07:23:24.173Z,15.81
2023-04-30T07:25:50.701Z,16.02
2023-04-30T07:28:17.079Z,15.98
2023-04-30T07:30:43.492Z,16.20
2023-04-30T07:33:10.216Z,16.20
2023-04-30T07:35:36.768Z,16.70
2023-04-30T07:38:04.827Z,17.06
2023-04-30T07:40:36.363Z,17.07
2023-04-30T07:43:04.655Z,16.63
2023-04-30T07:45:31.943Z,16.46
2023-04-30T07:47:58.428Z,16.41
2023-04-30T07:50:24.935Z,16.57
2023-04-30T07:52:51.330Z,16.54
2023-04-30T07:55:17.770Z,16.42
2023-04-30T07:57:44.194Z,16.54
2023-04-30T08:00:11.228Z,16.03
2023-04-30T08:02:37.833Z,15.20
2023-04-30T08:05:04.672Z,14.56
2023-04-30T08:07:31.057Z,14.19
2023-04-30T08:09:57.585Z,14.38
2023-04-30T08:12:24.023Z,14.61
2023-04-30T08:14:50.510Z,14.24
2023-04-30T08:17:17.228Z,14.13
2023-04-30T08:19:43.711Z,14.02
2023-04-30T08:22:10.209Z,14.16
2023-04-30T08:24:36.647Z,14.14
2023-04-30T08:27:03.718Z,13.89
2023-04-30T08:29:30.371Z,13.96
2023-04-30T08:32:02.538Z,13.97
2023-04-30T08:34:28.937Z,14.15
2023-04-30T08:36:55.521Z,14.02
2023-04-30T08:39:21.907Z,14.11
2023-04-30T08:41:56.007Z,14.56
2023-04-30T08:44:24.039Z,14.66
2023-04-30T08:46:55.538Z,14.18
2023-04-30T08:49:24.716Z,14.51
2023-04-30T08:51:52.058Z,14.36
2023-04-30T08:54:19.512Z,14.29
2023-04-30T08:56:46.081Z,14.58
2023-04-30T08:59:13.558Z,14.87
2023-04-30T09:01:41.678Z,14.85
2023-04-30T09:04:08.561Z,15.03
2023-04-30T09:06:35.294Z,14.81
2023-04-30T09:09:15.998Z,15.12
2023-04-30T09:11:43.055Z,15.61
2023-04-30T09:14:10.336Z,15.09
2023-04-30T09:16:54.873Z,14.76
2023-04-30T09:19:28.428Z,14.85
2023-04-30T09:21:55.708Z,15.17
2023-04-30T09:24:22.349Z,15.23
2023-04-30T09:26:49.422Z,15.11
2023-04-30T09:29:15.968Z,15.00
2023-04-30T09:31:45.033Z,15.25
2023-04-30T09:34:11.558Z,15.16
2023-04-30T09:36:37.965Z,15.09
2023-04-30T09:39:15.690Z,15.01
2023-04-30T09:41:42.966Z,15.07
2023-04-30T09:44:29.952Z,14.84
2023-04-30T09:47:00.108Z,15.01
2023-04-30T09:49:27.379Z,14.90
2023-04-30T09:51:58.628Z,14.83
2023-04-30T09:54:32.436Z,15.12
2023-04-30T09:57:01.846Z,15.30
2023-04-30T09:59:31.460Z,15.22
2023-04-30T10:02:03.356Z,15.18
2023-04-30T10:04:54.279Z,15.36
2023-04-30T10:07:22.626Z,15.48
2023-04-30T10:09:57.400Z,15.61
2023-04-30T10:12:58.209Z,15.67
2023-04-30T10:15:28.753Z,15.66
2023-04-30T10:18:03.619Z,15.78
2023-04-30T10:20:34.506Z,15.71
2023-04-30T10:23:01.420Z,15.98
2023-04-30T10:25:28.988Z,16.06
2023-04-30T10:27:55.769Z,16.08
2023-04-30T10:30:22.929Z,16.23
2023-04-30T10:32:55.512Z,16.28
2023-04-30T10:35:26.780Z,16.08
2023-04-30T10:38:15.306Z,16.16
2023-04-30T10:40:46.002Z,16.11
2023-04-30T10:43:13.042Z,16.03
2023-04-30T10:45:43.747Z,16.02
2023-04-30T10:48:10.407Z,16.05
2023-04-30T10:50:44.968Z,16.00
2023-04-30T10:53:16.036Z,15.94
2023-04-30T10:55:54.291Z,16.00
2023-04-30T10:58:47.467Z,16.17
2023-04-30T11:01:16.254Z,16.16
2023-04-30T11:04:03.655Z,16.25
2023-04-30T11:07:03.737Z,16.37
2023-04-30T11:09:44.421Z,16.47
2023-04-30T11:12:12.140Z,16.49
2023-04-30T11:14:45.839Z,16.55
2023-04-30T11:17:23.663Z,16.61
2023-04-30T11:19:52.220Z,16.99
2023-04-30T11:22:24.404Z,17.35
2023-04-30T11:24:55.426Z,17.34
2023-04-30T11:27:27.105Z,17.35
2023-04-30T11:29:55.763Z,17.56
2023-04-30T11:32:24.394Z,17.40
2023-04-30T11:34:51.393Z,17.54
2023-04-30T11:37:29.806Z,17.75
2023-04-30T11:40:00.148Z,17.63
2023-04-30T11:42:27.029Z,17.34
2023-04-30T11:44:53.522Z,17.52
2023-04-30T11:47:20.029Z,17.51
2023-04-30T11:49:46.896Z,17.46
2023-04-30T11:52:13.859Z,17.42
2023-04-30T11:54:40.254Z,17.41
2023-04-30T11:57:07.035Z,17.45
2023-04-30T11:59:42.422Z,17.44
2023-04-30T12:02:10.443Z,17.64
2023-04-30T12:04:38.863Z,17.75
2023-04-30T12:07:08.660Z,18.16
2023-04-30T12:09:52.849Z,17.84
2023-04-30T12:12:30.463Z,17.68
2023-04-30T12:14:57.612Z,17.79
2023-04-30T12:17:34.518Z,17.71
2023-04-30T12:20:01.270Z,17.71
2023-04-30T12:22:28.845Z,17.77
2023-04-30T12:24:56.582Z,17.88
2023-04-30T12:27:23.462Z,17.98
2023-04-30T12:29:51.105Z,17.85
2023-04-30T12:32:19.376Z,17.55
2023-04-30T12:34:46.683Z,17.60
2023-04-30T12:37:16.281Z,17.74
2023-04-30T12:39:43.230Z,17.53
2023-04-30T12:42:11.375Z,17.32
2023-04-30T12:44:45.247Z,17.14
2023-04-30T12:47:12.187Z,16.78
2023-04-30T12:49:39.322Z,16.52
2023-04-30T12:52:18.396Z,16.94
2023-04-30T12:54:45.471Z,17.60
2023-04-30T12:57:15.630Z,18.31
2023-04-30T13:00:00.820Z,18.93
2023-04-30T13:02:29.690Z,19.25
2023-04-30T13:04:56.982Z,19.14
2023-04-30T13:07:23.675Z,18.94
2023-04-30T13:09:57.773Z,18.79
2023-04-30T13:12:24.475Z,19.54
2023-04-30T13:14:51.084Z,20.19
2023-04-30T13:17:18.253Z,20.51
2023-04-30T13:19:44.622Z,20.63
2023-04-30T13:22:11.295Z,20.73
2023-04-30T13:24:38.140Z,20.28
2023-04-30T13:27:04.615Z,19.71
2023-04-30T13:29:31.956Z,19.10
2023-04-30T13:31:58.440Z,18.45
2023-04-30T13:34:24.945Z,18.16
2023-04-30T13:36:53.419Z,18.14
2023-04-30T13:39:20.500Z,18.25
2023-04-30T13:41:49.090Z,18.55
2023-04-30T13:44:17.015Z,18.52
2023-04-30T13:46:43.843Z,18.26
2023-04-30T13:49:10.439Z,18.05
2023-04-30T13:51:37.255Z,18.01
2023-04-30T13:54:03.779Z,17.96
2023-04-30T13:56:30.265Z,18.37
2023-04-30T13:58:56.668Z,19.17
2023-04-30T14:01:23.583Z,19.17
2023-04-30T14:03:50.398Z,19.02
2023-04-30T14:06:17.313Z,18.97
2023-04-30T14:08:43.737Z,19.02
2023-04-30T14:11:10.203Z,18.98
2023-04-30T14:13:37.341Z,18.76
2023-04-30T14:16:04.145Z,18.11
2023-04-30T14:18:32.520Z,17.89
2023-04-30T14:20:59.782Z,18.39
2023-04-30T14:23:26.492Z,18.77
2023-04-30T14:25:54.100Z,18.95
2023-04-30T14:28:21.045Z,19.09
2023-04-30T14:30:47.484Z,19.07
2023-04-30T14:33:14.711Z,18.40
2023-04-30T14:35:41.552Z,17.90
2023-04-30T14:38:10.662Z,17.57
2023-04-30T14:40:37.451Z,17.46
2023-04-30T14:43:03.940Z,17.37
2023-04-30T14:45:32.219Z,17.35
2023-04-30T14:47:58.732Z,17.48
2023-04-30T14:50:25.525Z,17.66
2023-04-30T14:52:51.970Z,17.82
2023-04-30T14:55:18.616Z,18.11
2023-04-30T14:57:45.036Z,18.19
2023-04-30T15:00:12.331Z,18.01
2023-04-30T15:02:38.925Z,17.82
2023-04-30T15:05:07.358Z,17.72
2023-04-30T15:07:34.211Z,17.66
2023-04-30T15:10:00.805Z,17.50
2023-04-30T15:12:27.842Z,17.33
2023-04-30T15:14:54.455Z,17.55
2023-04-30T15:17:22.023Z,17.86
2023-04-30T15:19:48.442Z,17.93
2023-04-30T15:22:16.255Z,17.92
2023-04-30T15:24:42.827Z,17.85
2023-04-30T15:27:09.651Z,18.07
2023-04-30T15:29:39.231Z,18.52
2023-04-30T15:32:06.240Z,18.81
2023-04-30T15:34:32.667Z,19.26
2023-04-30T15:36:59.130Z,19.02
2023-04-30T15:39:26.967Z,18.77
2023-04-30T15:41:53.813Z,18.77
2023-04-30T15:44:20.242Z,18.62
2023-04-30T15:46:46.792Z,18.55
2023-04-30T15:49:16.519Z,18.35
2023-04-30T15:51:45.563Z,18.37
2023-04-30T15:54:13.926Z,18.18
2023-04-30T15:56:41.198Z,18.00
2023-04-30T15:59:07.998Z,18.14
2023-04-30T16:01:34.689Z,18.21
2023-04-30T16:04:01.539Z,18.18
2023-04-30T16:06:29.640Z,18.09
2023-04-30T16:08:56.181Z,17.90
2023-04-30T16:11:24.002Z,17.83
2023-04-30T16:13:52.013Z,17.67
2023-04-30T16:16:18.546Z,17.63
2023-04-30T16:18:45.269Z,17.69
2023-04-30T16:21:11.727Z,17.72
2023-04-30T16:23:38.200Z,17.83
2023-04-30T16:26:04.608Z,18.02
2023-04-30T16:28:31.156Z,18.19
2023-04-30T16:30:58.247Z,18.12
2023-04-30T16:33:25.538Z,18.19
2023-04-30T16:35:52.150Z,18.16
2023-04-30T16:38:18.801Z,18.28
2023-04-30T16:41:00.692Z,18.42
2023-04-30T16:43:27.153Z,18.47
2023-04-30T16:46:30.692Z,18.52
2023-04-30T16:49:02.659Z,18.26
2023-04-30T16:51:29.350Z,18.17
2023-04-30T16:53:55.767Z,18.29
2023-04-30T16:56:22.155Z,18.20
2023-04-30T16:58:54.719Z,18.03
2023-04-30T17:01:21.277Z,17.98
2023-04-30T17:03:47.933Z,17.88
2023-04-30T17:06:15.536Z,17.61
2023-04-30T17:08:42.117Z,17.28
2023-04-30T17:11:08.562Z,16.94
2023-04-30T17:13:37.439Z,16.79
2023-04-30T17:16:05.184Z,16.71
2023-04-30T17:18:32.267Z,16.79
2023-04-30T17:20:58.686Z,16.80
2023-04-30T17:23:25.614Z,16.80
2023-04-30T17:25:52.120Z,16.79
2023-04-30T17:28:18.831Z,16.73
2023-04-30T17:31:15.202Z,16.68
2023-04-30T17:33:41.973Z,16.57
2023-04-30T17:36:09.702Z,16.54
2023-04-30T17:38:36.232Z,16.51
2023-04-30T17:41:02.736Z,16.42
2023-04-30T17:43:29.610Z,16.42
2023-04-30T17:45:57.452Z,16.40
2023-04-30T17:48:24.295Z,16.39
2023-04-30T17:50:54.473Z,16.34
2023-04-30T17:53:20.928Z,16.27
2023-04-30T17:55:47.378Z,16.23
2023-04-30T17:58:18.108Z,16.25
2023-04-30T18:00:44.749Z,16.16
2023-04-30T18:03:40.268Z,15.97
2023-04-30T18:06:07.357Z,15.78
2023-04-30T18:08:33.838Z,15.69
2023-04-30T18:11:47.141Z,15.53
2023-04-30T18:14:16.410Z,15.42
2023-04-30T18:16:43.068Z,15.27
2023-04-30T18:19:09.978Z,15.26
2023-04-30T18:21:36.814Z,15.25
2023-04-30T18:24:08.847Z,15.17
2023-04-30T18:26:35.290Z,15.15
2023-04-30T18:29:02.208Z,15.04
2023-04-30T18:31:28.731Z,14.95
2023-04-30T18:33:55.210Z,14.93
2023-04-30T18:36:21.833Z,14.87
2023-04-30T18:38:48.493Z,14.75
2023-04-30T18:41:16.148Z,14.61
2023-04-30T18:43:42.792Z,14.54
2023-04-30T18:46:28.584Z,14.47
2023-04-30T18:48:56.872Z,14.39
2023-04-30T18:51:23.344Z,14.28
2023-04-30T18:53:50.655Z,14.19
2023-04-30T18:56:17.282Z,14.07
2023-04-30T18:58:46.719Z,13.94
2023-04-30T19:01:14.177Z,13.88
2023-04-30T19:03:41.990Z,13.81
2023-04-30T19:06:17.775Z,13.77
2023-04-30T19:08:46.345Z,13.62
2023-04-30T19:11:16.194Z,13.40
2023-04-30T19:13:42.653Z,13.34
2023-04-30T19:16:09.310Z,13.28
2023-04-30T19:18:36.751Z,13.27
2023-04-30T19:21:05.290Z,13.21
2023-04-30T19:23:32.397Z,13.17
2023-04-30T19:26:00.250Z,13.11
2023-04-30T19:28:27.199Z,13.02
2023-04-30T19:31:09.365Z,12.99
2023-04-30T19:33:39.725Z,12.90
2023-04-30T19:36:06.583Z,12.77
2023-04-30T19:38:33.006Z,12.67
2023-04-30T19:41:00.907Z,12.63
2023-04-30T19:43:29.713Z,12.56
2023-04-30T19:45:57.585Z,12.45
2023-04-30T19:48:26.187Z,12.36
2023-04-30T19:51:13.601Z,12.30
2023-04-30T19:53:40.121Z,12.25
2023-04-30T19:56:08.699Z,12.20
2023-04-30T19:58:41.851Z,12.16
2023-04-30T20:01:10.000Z,12.14
2023-04-30T20:03:36.599Z,12.08
2023-04-30T20:06:04.632Z,12.05
2023-04-30T20:08:31.109Z,12.05
2023-04-30T20:10:57.600Z,12.03
2023-04-30T20:13:25.126Z,11.99
2023-04-30T20:15:54.391Z,11.94
2023-04-30T20:18:31.739Z,11.89
2023-04-30T20:20:58.528Z,11.85
2023-04-30T20:23:24.943Z,11.74
2023-04-30T20:25:51.426Z,11.66
2023-04-30T20:28:18.571Z,11.63
2023-04-30T20:30:47.373Z,11.60
2023-04-30T20:33:16.817Z,11.58
2023-04-30T20:35:47.667Z,11.58
2023-04-30T20:38:18.897Z,11.50
2023-04-30T20:40:46.398Z,11.38
2023-04-30T20:43:13.422Z,11.28
2023-04-30T20:45:42.422Z,11.21
2023-04-30T20:48:10.606Z,11.19
2023-04-30T20:50:43.080Z,11.14
2023-04-30T20:53:11.244Z,11.18
2023-04-30T20:55:38.099Z,11.17
2023-04-30T20:58:07.831Z,11.22
2023-04-30T21:00:34.585Z,11.24
2023-04-30T21:03:01.583Z,11.11
2023-04-30T21:05:30.058Z,10.99
2023-04-30T21:08:01.709Z,10.87
2023-04-30T21:10:35.198Z,10.71
2023-04-30T21:13:05.389Z,10.64
2023-04-30T21:15:34.108Z,10.61
2023-04-30T21:18:00.806Z,10.44
2023-04-30T21:20:27.477Z,10.39
2023-04-30T21:22:55.442Z,10.46
2023-04-30T21:25:22.251Z,10.50
2023-04-30T21:27:48.958Z,10.52
2023-04-30T21:30:17.116Z,10.60
2023-04-30T21:33:21.752Z,10.56
2023-04-30T21:35:48.643Z,10.48
2023-04-30T21:38:15.134Z,10.42
2023-04-30T21:40:43.194Z,10.39
2023-04-30T21:43:09.867Z,10.35
2023-04-30T21:45:36.319Z,10.32
2023-04-30T21:48:02.952Z,10.32
2023-04-30T21:50:32.517Z,10.32
2023-04-30T21:52:59.239Z,10.32
2023-04-30T21:55:27.691Z,10.32
2023-04-30T21:57:55.149Z,10.27
2023-04-30T22:00:59.255Z,10.22
2023-04-30T22:03:25.771Z,10.15
2023-04-30T22:05:54.610Z,10.13
2023-04-30T22:08:21.254Z,10.09
2023-04-30T22:10:47.864Z,9.99
2023-04-30T22:13:15.000Z,9.92
2023-04-30T22:18:13.322Z,9.77
2023-04-30T22:20:39.729Z,9.70
2023-04-30T22:23:07.594Z,9.61
2023-04-30T22:25:34.413Z,9.59
2023-04-30T22:28:00.893Z,9.57
2023-04-30T22:30:27.326Z,9.57
2023-04-30T22:32:57.127Z,9.57
2023-04-30T22:35:23.813Z,9.50
2023-04-30T22:37:55.437Z,9.43
2023-04-30T22:40:28.407Z,9.39
2023-04-30T22:42:54.926Z,9.32
2023-04-30T22:45:51.070Z,9.32
2023-04-30T22:48:18.680Z,9.31
2023-04-30T22:50:45.219Z,9.30
2023-04-30T22:53:13.298Z,9.31
2023-04-30T22:55:39.738Z,9.28
2023-04-30T22:58:06.153Z,9.25
2023-04-30T23:00:32.701Z,9.24
2023-04-30T23:02:59.296Z,9.22
2023-04-30T23:05:26.361Z,9.20
2023-04-30T23:07:53.614Z,9.19
2023-04-30T23:10:20.320Z,9.19
2023-04-30T23:12:47.040Z,9.14
2023-04-30T23:15:18.639Z,9.09
2023-04-30T23:17:45.057Z,9.05
2023-04-30T23:20:11.983Z,9.03
2023-04-30T23:22:38.646Z,9.00
2023-04-30T23:25:05.288Z,8.94
2023-04-30T23:27:34.144Z,8.91
2023-04-30T23:30:25.826Z,8.86
2023-04-30T23:32:52.383Z,8.81
2023-04-30T23:35:18.842Z,8.76
2023-04-30T23:37:45.378Z,8.73
2023-04-30T23:40:11.985Z,8.66
2023-04-30T23:42:38.402Z,8.57
2023-04-30T23:45:08.991Z,8.55
2023-04-30T23:47:38.786Z,8.48
2023-04-30T23:50:06.850Z,8.47
2023-04-30T23:52:33.381Z,8.41
2023-04-30T23:55:16.107Z,8.31
2023-04-30T23:57:43.137Z,8.23
